Time,TemperatureF,DewpointF,PressureIn,WindDirection,WindDirectionDegrees,WindSpeedMPH,WindSpeedGustMPH,Humidity,HourlyPrecipIn,Conditions,Clouds,dailyrainin,SoftwareType,DateUTC
2013-05-19 00:01:00,30.0,11.0,30.12,West,277,0.0,2.0,44,0.00,,,0.01,,2013-05-19 08:01:00,
2013-05-19 00:12:00,30.0,11.0,30.12,West,277,0.0,2.0,44,0.00,,,0.01,,2013-05-19 08:12:00,
2013-05-19 00:21:00,29.0,10.0,30.14,West,277,0.0,2.0,45,0.00,,,0.01,,2013-05-19 08:21:00,
2013-05-19 00:32:00,29.0,10.0,30.14,West,277,0.0,2.0,45,0.00,,,0.01,,2013-05-19 08:32:00,
2013-05-19 00:41:00,29.0,10.0,30.14,West,277,0.0,2.0,45,0.00,,,0.01,,2013-05-19 08:41:00,
2013-05-19 00:51:00,28.0,10.0,30.16,West,277,0.0,1.0,46,0.00,,,0.01,,2013-05-19 08:51:00,
2013-05-19 01:02:00,28.0,10.0,30.16,West,277,0.0,1.0,46,0.00,,,0.01,,2013-05-19 09:02:00,
2013-05-19 01:11:00,28.0,10.0,30.16,West,277,0.0,1.0,46,0.00,,,0.01,,2013-05-19 09:11:00,
2013-05-19 01:21:00,26.0,12.0,30.17,West,277,0.0,0.0,55,0.00,,,0.01,,2013-05-19 09:21:00,
2013-05-19 01:32:00,26.0,12.0,30.17,West,277,0.0,0.0,55,0.00,,,0.01,,2013-05-19 09:32:00,
2013-05-19 01:42:00,26.0,12.0,30.17,West,277,0.0,0.0,55,0.00,,,0.01,,2013-05-19 09:42:00,
2013-05-19 01:53:00,24.0,11.0,30.19,West,277,0.0,0.0,58,0.00,,,0.01,,2013-05-19 09:53:00,
2013-05-19 02:02:00,24.0,11.0,30.19,West,277,0.0,0.0,58,0.00,,,0.01,,2013-05-19 10:02:00,
2013-05-19 02:12:00,24.0,11.0,30.19,West,277,0.0,0.0,58,0.00,,,0.01,,2013-05-19 10:12:00,
2013-05-19 02:22:00,24.0,12.0,30.21,West,277,0.0,1.0,59,0.00,,,0.01,,2013-05-19 10:22:00,
2013-05-19 02:32:00,24.0,12.0,30.21,West,277,0.0,1.0,59,0.00,,,0.01,,2013-05-19 10:32:00,
2013-05-19 02:42:00,24.0,12.0,30.21,West,277,0.0,1.0,59,0.00,,,0.01,,2013-05-19 10:42:00,
2013-05-19 02:52:00,25.0,10.0,30.22,West,277,0.0,1.0,52,0.00,,,0.01,,2013-05-19 10:52:00,
2013-05-19 03:02:00,25.0,10.0,30.22,West,277,0.0,1.0,52,0.00,,,0.01,,2013-05-19 11:02:00,
2013-05-19 03:11:00,25.0,10.0,30.22,West,277,0.0,1.0,52,0.00,,,0.01,,2013-05-19 11:11:00,
2013-05-19 03:21:00,25.0,10.0,30.24,West,277,0.0,2.0,52,0.00,,,0.01,,2013-05-19 11:21:00,
2013-05-19 03:32:00,25.0,10.0,30.24,West,277,0.0,2.0,52,0.00,,,0.01,,2013-05-19 11:32:00,
2013-05-19 03:42:00,25.0,10.0,30.24,West,277,0.0,2.0,52,0.00,,,0.01,,2013-05-19 11:42:00,
2013-05-19 03:52:00,25.0,12.0,30.24,West,277,0.0,1.0,57,0.00,,,0.01,,2013-05-19 11:52:00,
2013-05-19 04:01:00,25.0,12.0,30.24,West,277,0.0,1.0,57,0.00,,,0.01,,2013-05-19 12:01:00,
2013-05-19 04:11:00,25.0,12.0,30.24,West,277,0.0,1.0,57,0.00,,,0.01,,2013-05-19 12:11:00,
2013-05-19 04:21:00,24.0,9.0,30.26,West,277,0.0,1.0,52,0.00,,,0.01,,2013-05-19 12:21:00,
2013-05-19 04:31:00,24.0,9.0,30.26,West,277,0.0,1.0,52,0.00,,,0.01,,2013-05-19 12:31:00,
2013-05-19 04:41:00,24.0,9.0,30.26,West,277,0.0,1.0,52,0.00,,,0.01,,2013-05-19 12:41:00,
2013-05-19 04:52:00,24.0,11.0,30.28,West,277,0.0,0.0,56,0.00,,,0.01,,2013-05-19 12:52:00,
2013-05-19 05:01:00,24.0,11.0,30.28,West,277,0.0,0.0,56,0.00,,,0.01,,2013-05-19 13:01:00,
2013-05-19 05:11:00,24.0,11.0,30.28,West,277,0.0,0.0,56,0.00,,,0.01,,2013-05-19 13:11:00,
2013-05-19 05:21:00,24.0,10.0,30.29,West,277,0.0,3.0,54,0.00,,,0.01,,2013-05-19 13:21:00,
2013-05-19 05:31:00,24.0,10.0,30.29,West,277,0.0,3.0,54,0.00,,,0.01,,2013-05-19 13:31:00,
2013-05-19 05:42:00,24.0,10.0,30.29,West,277,0.0,3.0,54,0.00,,,0.01,,2013-05-19 13:42:00,
2013-05-19 05:52:00,24.0,11.0,30.30,West,277,0.0,1.0,57,0.00,,,0.01,,2013-05-19 13:52:00,
2013-05-19 06:02:00,24.0,11.0,30.30,West,277,0.0,1.0,57,0.00,,,0.01,,2013-05-19 14:02:00,
2013-05-19 06:11:00,24.0,11.0,30.30,West,277,0.0,1.0,57,0.00,,,0.01,,2013-05-19 14:11:00,
2013-05-19 06:21:00,23.0,12.0,30.32,West,277,0.0,0.0,61,0.00,,,0.01,,2013-05-19 14:21:00,
2013-05-19 06:32:00,23.0,12.0,30.32,West,277,0.0,0.0,61,0.00,,,0.01,,2013-05-19 14:32:00,
2013-05-19 06:41:00,23.0,12.0,30.32,West,277,0.0,0.0,61,0.00,,,0.01,,2013-05-19 14:41:00,
2013-05-19 06:51:00,23.0,10.0,30.33,West,277,0.0,1.0,56,0.00,,,0.01,,2013-05-19 14:51:00,
2013-05-19 07:01:00,23.0,10.0,30.33,West,277,0.0,1.0,56,0.00,,,0.01,,2013-05-19 15:01:00,
2013-05-19 07:11:00,23.0,10.0,30.33,West,277,0.0,1.0,56,0.00,,,0.01,,2013-05-19 15:11:00,
2013-05-19 07:21:00,25.0,9.0,30.35,West,277,1.0,3.0,50,0.00,,,0.01,,2013-05-19 15:21:00,
2013-05-19 07:33:00,25.0,9.0,30.35,West,277,1.0,3.0,50,0.00,,,0.01,,2013-05-19 15:33:00,
2013-05-19 07:43:00,25.0,9.0,30.35,West,277,1.0,3.0,50,0.00,,,0.01,,2013-05-19 15:43:00,
2013-05-19 07:53:00,26.0,9.0,30.35,West,275,1.0,4.0,48,0.00,,,0.01,,2013-05-19 15:53:00,
2013-05-19 08:03:00,26.0,9.0,30.35,West,275,1.0,4.0,48,0.00,,,0.01,,2013-05-19 16:03:00,
2013-05-19 08:12:00,26.0,9.0,30.35,West,275,1.0,4.0,48,0.00,,,0.01,,2013-05-19 16:12:00,
2013-05-19 08:23:00,27.0,8.0,30.37,West,273,2.0,6.0,43,0.00,,,0.01,,2013-05-19 16:23:00,
2013-05-19 08:32:00,27.0,8.0,30.37,West,273,2.0,6.0,43,0.00,,,0.01,,2013-05-19 16:32:00,
2013-05-19 08:42:00,27.0,8.0,30.37,West,273,2.0,6.0,43,0.00,,,0.01,,2013-05-19 16:42:00,
2013-05-19 08:52:00,29.0,9.0,30.37,West,280,2.0,6.0,42,0.00,,,0.01,,2013-05-19 16:52:00,
2013-05-19 09:02:00,29.0,9.0,30.37,West,280,2.0,6.0,42,0.00,,,0.01,,2013-05-19 17:02:00,
2013-05-19 09:12:00,29.0,9.0,30.37,West,280,2.0,6.0,42,0.00,,,0.01,,2013-05-19 17:12:00,
2013-05-19 09:22:00,30.0,8.0,30.39,West,272,2.0,8.0,39,0.00,,,0.01,,2013-05-19 17:22:00,
2013-05-19 09:32:00,30.0,8.0,30.39,West,272,2.0,8.0,39,0.00,,,0.01,,2013-05-19 17:32:00,
2013-05-19 09:42:00,30.0,8.0,30.39,West,272,2.0,8.0,39,0.00,,,0.01,,2013-05-19 17:42:00,
2013-05-19 09:52:00,31.0,8.0,30.40,West,269,2.0,8.0,37,0.00,,,0.01,,2013-05-19 17:52:00,
2013-05-19 10:02:00,31.0,8.0,30.40,West,269,2.0,8.0,37,0.00,,,0.01,,2013-05-19 18:02:00,
2013-05-19 10:12:00,31.0,8.0,30.40,West,269,2.0,8.0,37,0.00,,,0.01,,2013-05-19 18:12:00,
2013-05-19 10:21:00,32.0,9.0,30.40,West,277,1.0,7.0,37,0.00,,,0.01,,2013-05-19 18:21:00,
2013-05-19 10:32:00,32.0,9.0,30.40,West,277,1.0,7.0,37,0.00,,,0.01,,2013-05-19 18:32:00,
2013-05-19 10:42:00,32.0,9.0,30.40,West,277,1.0,7.0,37,0.00,,,0.01,,2013-05-19 18:42:00,
2013-05-19 10:52:00,34.0,8.0,30.41,SW,221,2.0,7.0,33,0.00,,,0.01,,2013-05-19 18:52:00,
2013-05-19 11:01:00,34.0,8.0,30.41,SW,221,2.0,7.0,33,0.00,,,0.01,,2013-05-19 19:01:00,
2013-05-19 11:11:00,34.0,8.0,30.41,SW,221,2.0,7.0,33,0.00,,,0.01,,2013-05-19 19:11:00,
2013-05-19 11:21:00,35.0,9.0,30.41,West,276,3.0,8.0,33,0.00,,,0.01,,2013-05-19 19:21:00,
2013-05-19 11:32:00,35.0,9.0,30.41,West,276,3.0,8.0,33,0.00,,,0.01,,2013-05-19 19:32:00,
2013-05-19 11:42:00,35.0,9.0,30.41,West,276,3.0,8.0,33,0.00,,,0.01,,2013-05-19 19:42:00,
2013-05-19 11:52:00,37.0,10.0,30.42,WSW,252,2.0,6.0,32,0.01,,,0.02,,2013-05-19 19:52:00,
2013-05-19 12:02:00,37.0,10.0,30.42,WSW,252,2.0,6.0,32,0.01,,,0.02,,2013-05-19 20:02:00,
2013-05-19 12:11:00,37.0,10.0,30.42,WSW,252,2.0,6.0,32,0.01,,,0.02,,2013-05-19 20:11:00,
2013-05-19 12:21:00,38.0,10.0,30.43,SSW,205,1.0,7.0,31,0.01,,,0.02,,2013-05-19 20:21:00,
2013-05-19 12:31:00,38.0,10.0,30.43,SSW,205,1.0,7.0,31,0.01,,,0.02,,2013-05-19 20:31:00,
2013-05-19 12:41:00,38.0,10.0,30.43,SSW,205,1.0,7.0,31,0.01,,,0.02,,2013-05-19 20:41:00,
2013-05-19 12:51:00,39.0,10.0,30.43,SW,227,5.0,7.0,30,0.00,,,0.02,,2013-05-19 20:51:00,
2013-05-19 13:02:00,39.0,10.0,30.43,SW,227,5.0,7.0,30,0.00,,,0.02,,2013-05-19 21:02:00,
2013-05-19 13:11:00,39.0,10.0,30.43,SW,227,5.0,7.0,30,0.00,,,0.02,,2013-05-19 21:11:00,
2013-05-19 13:22:00,40.0,12.0,30.44,West,261,1.0,7.0,31,0.00,,,0.02,,2013-05-19 21:22:00,
2013-05-19 13:32:00,40.0,12.0,30.44,West,261,1.0,7.0,31,0.00,,,0.02,,2013-05-19 21:32:00,
2013-05-19 13:43:00,40.0,12.0,30.44,West,261,1.0,7.0,31,0.00,,,0.02,,2013-05-19 21:43:00,
2013-05-19 13:53:00,41.0,12.0,30.44,SSW,205,2.0,7.0,30,0.00,,,0.02,,2013-05-19 21:53:00,
2013-05-19 14:02:00,41.0,12.0,30.44,SSW,205,2.0,7.0,30,0.00,,,0.02,,2013-05-19 22:02:00,
2013-05-19 14:12:00,41.0,12.0,30.44,SSW,205,2.0,7.0,30,0.00,,,0.02,,2013-05-19 22:12:00,
2013-05-19 14:23:00,42.0,13.0,30.45,NW,315,1.0,8.0,30,0.00,,,0.02,,2013-05-19 22:23:00,
2013-05-19 14:33:00,42.0,13.0,30.45,NW,315,1.0,8.0,30,0.00,,,0.02,,2013-05-19 22:33:00,
2013-05-19 14:42:00,42.0,13.0,30.45,NW,315,1.0,8.0,30,0.00,,,0.02,,2013-05-19 22:42:00,
2013-05-19 14:52:00,43.0,12.0,30.45,SW,219,4.0,9.0,28,0.00,,,0.01,,2013-05-19 22:52:00,
2013-05-19 15:02:00,43.0,12.0,30.45,SW,219,4.0,9.0,28,0.00,,,0.01,,2013-05-19 23:02:00,
2013-05-19 15:11:00,43.0,12.0,30.45,SW,219,4.0,9.0,28,0.00,,,0.01,,2013-05-19 23:11:00,
2013-05-19 15:21:00,43.0,13.0,30.45,WNW,289,2.0,9.0,29,0.00,,,0.01,,2013-05-19 23:21:00,
2013-05-19 15:32:00,43.0,13.0,30.45,WNW,289,2.0,9.0,29,0.00,,,0.01,,2013-05-19 23:32:00,
2013-05-19 15:42:00,43.0,13.0,30.45,WNW,289,2.0,9.0,29,0.00,,,0.01,,2013-05-19 23:42:00,
2013-05-19 15:52:00,45.0,14.0,30.46,South,188,1.0,6.0,28,0.00,,,0.01,,2013-05-19 23:52:00,
2013-05-19 16:02:00,45.0,14.0,30.46,South,188,1.0,6.0,28,0.00,,,0.01,,2013-05-20 00:02:00,
2013-05-19 16:11:00,45.0,14.0,30.46,South,188,1.0,6.0,28,0.00,,,0.01,,2013-05-20 00:11:00,
2013-05-19 16:21:00,44.0,13.0,30.46,WSW,243,4.0,7.0,28,0.00,,,0.01,,2013-05-20 00:21:00,
2013-05-19 16:32:00,44.0,13.0,30.46,WSW,243,4.0,7.0,28,0.00,,,0.01,,2013-05-20 00:32:00,
2013-05-19 16:41:00,44.0,13.0,30.46,WSW,243,4.0,7.0,28,0.00,,,0.01,,2013-05-20 00:41:00,
2013-05-19 16:52:00,45.0,14.0,30.46,SW,236,2.0,9.0,28,0.00,,,0.01,,2013-05-20 00:52:00,
2013-05-19 17:01:00,45.0,14.0,30.46,SW,236,2.0,9.0,28,0.00,,,0.01,,2013-05-20 01:01:00,
2013-05-19 17:11:00,45.0,14.0,30.46,SW,236,2.0,9.0,28,0.00,,,0.01,,2013-05-20 01:11:00,
2013-05-19 17:21:00,45.0,14.0,30.47,South,185,0.0,5.0,28,0.00,,,0.01,,2013-05-20 01:21:00,
2013-05-19 17:31:00,45.0,14.0,30.47,South,185,0.0,5.0,28,0.00,,,0.01,,2013-05-20 01:31:00,
2013-05-19 17:42:00,45.0,14.0,30.47,South,185,0.0,5.0,28,0.00,,,0.01,,2013-05-20 01:42:00,
2013-05-19 17:52:00,45.0,15.0,30.47,West,271,5.0,8.0,29,0.00,,,0.01,,2013-05-20 01:52:00,
2013-05-19 18:02:00,45.0,15.0,30.47,West,271,5.0,8.0,29,0.00,,,0.01,,2013-05-20 02:02:00,
2013-05-19 18:11:00,45.0,15.0,30.47,West,271,5.0,8.0,29,0.00,,,0.01,,2013-05-20 02:11:00,
2013-05-19 18:21:00,45.0,15.0,30.47,West,263,3.0,8.0,29,0.00,,,0.01,,2013-05-20 02:21:00,
2013-05-19 18:31:00,45.0,15.0,30.47,West,263,3.0,8.0,29,0.00,,,0.01,,2013-05-20 02:31:00,
2013-05-19 18:42:00,45.0,15.0,30.47,West,263,3.0,8.0,29,0.00,,,0.01,,2013-05-20 02:42:00,
2013-05-19 18:51:00,45.0,15.0,30.47,SSW,210,2.0,10.0,29,0.00,,,0.01,,2013-05-20 02:51:00,
2013-05-19 19:01:00,45.0,15.0,30.47,SSW,210,2.0,10.0,29,0.00,,,0.01,,2013-05-20 03:01:00,
2013-05-19 19:11:00,45.0,15.0,30.47,SSW,210,2.0,10.0,29,0.00,,,0.01,,2013-05-20 03:11:00,
2013-05-19 19:21:00,45.0,15.0,30.47,West,267,3.0,5.0,29,0.00,,,0.01,,2013-05-20 03:21:00,
2013-05-19 19:33:00,45.0,15.0,30.47,West,267,3.0,5.0,29,0.00,,,0.01,,2013-05-20 03:33:00,
2013-05-19 19:42:00,45.0,15.0,30.47,West,267,3.0,5.0,29,0.00,,,0.01,,2013-05-20 03:42:00,
2013-05-19 19:52:00,45.0,15.0,30.47,West,260,2.0,6.0,29,0.00,,,0.01,,2013-05-20 03:52:00,
2013-05-19 20:02:00,45.0,15.0,30.47,West,260,2.0,6.0,29,0.00,,,0.01,,2013-05-20 04:02:00,
2013-05-19 20:12:00,45.0,15.0,30.47,West,260,2.0,6.0,29,0.00,,,0.01,,2013-05-20 04:12:00,
2013-05-19 20:23:00,45.0,16.0,30.48,West,267,4.0,6.0,31,0.00,,,0.01,,2013-05-20 04:23:00,
2013-05-19 20:33:00,45.0,16.0,30.48,West,267,4.0,6.0,31,0.00,,,0.01,,2013-05-20 04:33:00,
2013-05-19 20:42:00,45.0,16.0,30.48,West,267,4.0,6.0,31,0.00,,,0.01,,2013-05-20 04:42:00,
2013-05-19 20:52:00,46.0,16.0,30.48,SW,223,1.0,5.0,30,0.00,,,0.01,,2013-05-20 04:52:00,
2013-05-19 21:02:00,46.0,16.0,30.48,SW,223,1.0,5.0,30,0.00,,,0.01,,2013-05-20 05:02:00,
2013-05-19 21:11:00,46.0,16.0,30.48,SW,223,1.0,5.0,30,0.00,,,0.01,,2013-05-20 05:11:00,
2013-05-19 21:21:00,46.0,16.0,30.49,West,268,1.0,5.0,30,0.00,,,0.01,,2013-05-20 05:21:00,
2013-05-19 21:32:00,46.0,16.0,30.49,West,268,1.0,5.0,30,0.00,,,0.01,,2013-05-20 05:32:00,
2013-05-19 21:42:00,46.0,16.0,30.49,West,268,1.0,5.0,30,0.00,,,0.01,,2013-05-20 05:42:00,
2013-05-19 21:51:00,44.0,16.0,30.49,West,267,0.0,3.0,32,0.00,,,0.01,,2013-05-20 05:51:00,
2013-05-19 22:01:00,44.0,16.0,30.49,West,267,0.0,3.0,32,0.00,,,0.01,,2013-05-20 06:01:00,
2013-05-19 22:11:00,44.0,16.0,30.49,West,267,0.0,3.0,32,0.00,,,0.01,,2013-05-20 06:11:00,
2013-05-19 22:21:00,43.0,17.0,30.50,SW,219,0.0,3.0,35,0.00,,,0.01,,2013-05-20 06:21:00,
2013-05-19 22:32:00,43.0,17.0,30.50,SW,219,0.0,3.0,35,0.00,,,0.01,,2013-05-20 06:32:00,
2013-05-19 22:41:00,43.0,17.0,30.50,SW,219,0.0,3.0,35,0.00,,,0.01,,2013-05-20 06:41:00,
2013-05-19 22:51:00,41.0,16.0,30.50,SW,218,0.0,2.0,36,0.00,,,0.01,,2013-05-20 06:51:00,
2013-05-19 23:01:00,41.0,16.0,30.50,SW,218,0.0,2.0,36,0.00,,,0.01,,2013-05-20 07:01:00,
2013-05-19 23:11:00,41.0,16.0,30.50,SW,218,0.0,2.0,36,0.00,,,0.01,,2013-05-20 07:11:00,
2013-05-19 23:21:00,37.0,15.0,30.51,SW,219,0.0,1.0,40,0.00,,,0.01,,2013-05-20 07:21:00,
2013-05-19 23:32:00,37.0,15.0,30.51,SW,219,0.0,1.0,40,0.00,,,0.01,,2013-05-20 07:32:00,
2013-05-19 23:41:00,37.0,15.0,30.51,SW,219,0.0,1.0,40,0.00,,,0.01,,2013-05-20 07:41:00,
2013-05-19 23:52:00,35.0,17.0,30.52,SW,218,0.0,0.0,47,0.00,,,0.01,,2013-05-20 07:52:00,